createdAt,value
2023-05-21T00:00:40.081Z,99788.44
2023-05-21T00:03:13.796Z,99783.00
2023-05-21T00:05:41.594Z,99778.38
2023-05-21T00:08:09.378Z,99787.37
2023-05-21T00:10:36.848Z,99781.91
2023-05-21T00:13:04.529Z,99785.47
2023-05-21T00:15:32.386Z,99780.25
2023-05-21T00:17:59.913Z,99776.47
2023-05-21T00:20:29.344Z,99777.53
2023-05-21T00:22:57.053Z,99781.91
2023-05-21T00:25:24.516Z,99789.06
2023-05-21T00:27:51.946Z,99794.50
2023-05-21T00:30:19.763Z,99798.28
2023-05-21T00:32:47.443Z,99788.44
2023-05-21T00:35:15.070Z,99796.63
2023-05-21T00:37:42.902Z,99792.81
2023-05-21T00:40:11.576Z,99793.06
2023-05-21T00:42:39.386Z,99790.34
2023-05-21T00:45:07.626Z,99800.19
2023-05-21T00:47:35.454Z,99791.41
2023-05-21T00:50:03.751Z,99785.72
2023-05-21T00:52:31.630Z,99791.16
2023-05-21T00:54:59.096Z,99784.88
2023-05-21T00:57:27.205Z,99785.72
2023-05-21T00:59:55.096Z,99779.44
2023-05-21T01:02:24.391Z,99774.00
2023-05-21T01:04:54.721Z,99779.19
2023-05-21T01:07:22.446Z,99781.91
2023-05-21T01:09:49.930Z,99774.56
2023-05-21T01:12:18.134Z,99778.16
2023-05-21T01:14:45.853Z,99769.12
2023-05-21T01:17:13.490Z,99772.91
2023-05-21T01:19:41.816Z,99773.75
2023-05-21T01:22:09.572Z,99771.00
2023-05-21T01:24:37.125Z,99766.38
2023-05-21T01:27:07.743Z,99765.56
2023-05-21T01:29:35.642Z,99769.12
2023-05-21T01:32:09.776Z,99759.28
2023-05-21T01:35:00.903Z,99762.00
2023-05-21T01:37:38.756Z,99759.06
2023-05-21T01:40:23.159Z,99754.66
2023-05-21T01:42:50.634Z,99755.72
2023-05-21T01:45:19.088Z,99765.81
2023-05-21T01:47:48.301Z,99762.25
2023-05-21T01:50:16.438Z,99766.63
2023-05-21T01:53:03.961Z,99760.94
2023-05-21T01:55:31.771Z,99759.06
2023-05-21T01:58:02.018Z,99771.00
2023-05-21T02:00:30.915Z,99762.84
2023-05-21T02:02:59.009Z,99769.12
2023-05-21T02:05:26.663Z,99752.53
2023-05-21T02:07:54.937Z,99757.16
2023-05-21T02:10:23.229Z,99773.53
2023-05-21T02:12:51.447Z,99768.91
2023-05-21T02:15:19.265Z,99764.53
2023-05-21T02:17:47.208Z,99772.69
2023-05-21T02:20:15.650Z,99761.78
2023-05-21T02:22:47.052Z,99768.91
2023-05-21T02:25:18.475Z,99761.78
2023-05-21T02:27:47.030Z,99761.78
2023-05-21T02:30:15.593Z,99756.34
2023-05-21T02:32:43.642Z,99755.47
2023-05-21T02:35:12.363Z,99759.06
2023-05-21T02:37:40.695Z,99757.37
2023-05-21T02:40:09.787Z,99759.91
2023-05-21T02:42:39.572Z,99752.75
2023-05-21T02:45:08.085Z,99765.34
2023-05-21T02:47:35.774Z,99768.59
2023-05-21T02:50:03.427Z,99761.56
2023-05-21T02:52:31.676Z,99762.84
2023-05-21T02:54:59.152Z,99768.28
2023-05-21T02:57:26.660Z,99763.91
2023-05-21T02:59:54.521Z,99757.63
2023-05-21T03:02:23.094Z,99764.72
2023-05-21T03:04:50.879Z,99767.47
2023-05-21T03:07:20.090Z,99761.19
2023-05-21T03:09:47.774Z,99767.47
2023-05-21T03:12:15.414Z,99766.38
2023-05-21T03:14:44.234Z,99765.56
2023-05-21T03:17:14.103Z,99766.38
2023-05-21T03:19:41.800Z,99755.72
2023-05-21T03:22:09.615Z,99762.84
2023-05-21T03:24:38.501Z,99760.09
2023-05-21T03:27:06.849Z,99760.34
2023-05-21T03:29:34.823Z,99760.09
2023-05-21T03:32:02.653Z,99751.94
2023-05-21T03:34:31.220Z,99747.53
2023-05-21T03:36:59.468Z,99752.16
2023-05-21T03:39:27.916Z,99756.56
2023-05-21T03:41:55.890Z,99759.28
2023-05-21T03:44:23.984Z,99758.44
2023-05-21T03:46:51.925Z,99762.00
2023-05-21T03:49:20.417Z,99760.09
2023-05-21T03:51:48.785Z,99759.53
2023-05-21T03:54:16.495Z,99758.44
2023-05-21T03:56:44.099Z,99760.34
2023-05-21T03:59:12.445Z,99759.53
2023-05-21T04:01:39.960Z,99760.34
2023-05-21T04:04:08.348Z,99757.87
2023-05-21T04:06:35.859Z,99761.44
2023-05-21T04:09:04.877Z,99762.25
2023-05-21T04:11:32.582Z,99766.03
2023-05-21T04:14:00.043Z,99767.72
2023-05-21T04:16:27.568Z,99764.16
2023-05-21T04:18:55.625Z,99769.59
2023-05-21T04:21:23.275Z,99770.44
2023-05-21T04:23:50.758Z,99769.59
2023-05-21T04:26:19.740Z,99770.19
2023-05-21T04:28:47.878Z,99775.62
2023-05-21T04:31:15.737Z,99772.91
2023-05-21T04:33:46.103Z,99776.47
2023-05-21T04:36:13.816Z,99772.09
2023-05-21T04:38:42.764Z,99771.00
2023-05-21T04:41:11.179Z,99778.16
2023-05-21T04:43:39.215Z,99776.84
2023-05-21T04:46:07.668Z,99773.03
2023-05-21T04:48:35.600Z,99770.56
2023-05-21T04:51:05.748Z,99769.50
2023-05-21T04:53:34.039Z,99769.72
2023-05-21T04:56:03.215Z,99763.22
2023-05-21T04:58:32.984Z,99771.38
2023-05-21T05:01:03.279Z,99774.94
2023-05-21T05:03:31.421Z,99770.31
2023-05-21T05:06:00.103Z,99765.34
2023-05-21T05:08:27.526Z,99774.13
2023-05-21T05:10:55.241Z,99768.66
2023-05-21T05:13:22.804Z,99777.66
2023-05-21T05:15:51.537Z,99773.88
2023-05-21T05:18:22.013Z,99773.88
2023-05-21T05:20:49.521Z,99764.87
2023-05-21T05:23:17.392Z,99760.25
2023-05-21T05:25:45.363Z,99759.41
2023-05-21T05:28:12.884Z,99762.97
2023-05-21T05:30:40.764Z,99764.87
2023-05-21T05:33:09.236Z,99766.56
2023-05-21T05:35:36.917Z,99765.69
2023-05-21T05:38:05.050Z,99766.56
2023-05-21T05:40:33.469Z,99764.66
2023-05-21T05:43:01.083Z,99766.56
2023-05-21T05:45:28.647Z,99765.69
2023-05-21T05:47:56.999Z,99772.00
2023-05-21T05:50:24.484Z,99775.56
2023-05-21T05:52:52.637Z,99766.56
2023-05-21T05:55:22.058Z,99767.38
2023-05-21T05:57:49.560Z,99767.38
2023-05-21T06:00:17.726Z,99758.97
2023-05-21T06:02:45.710Z,99752.91
2023-05-21T06:05:13.240Z,99761.94
2023-05-21T06:07:41.309Z,99758.13
2023-05-21T06:10:09.360Z,99756.47
2023-05-21T06:12:36.866Z,99755.66
2023-05-21T06:15:05.705Z,99757.31
2023-05-21T06:17:34.384Z,99758.38
2023-05-21T06:20:02.692Z,99755.94
2023-05-21T06:22:31.285Z,99759.56
2023-05-21T06:24:59.077Z,99756.47
2023-05-21T06:27:26.562Z,99760.25
2023-05-21T06:29:54.165Z,99767.38
2023-05-21T06:32:23.139Z,99756.47
2023-05-21T06:34:50.981Z,99756.47
2023-05-21T06:37:20.402Z,99755.41
2023-05-21T06:39:48.121Z,99753.75
2023-05-21T06:42:15.770Z,99751.63
2023-05-21T06:44:44.224Z,99749.94
2023-05-21T06:47:12.087Z,99743.44
2023-05-21T06:49:39.858Z,99746.19
2023-05-21T06:52:07.382Z,99738.81
2023-05-21T06:54:36.424Z,99741.56
2023-05-21T06:57:04.116Z,99741.34
2023-05-21T06:59:32.022Z,99745.72
2023-05-21T07:02:00.170Z,99741.34
2023-05-21T07:04:29.202Z,99734.81
2023-05-21T07:06:56.822Z,99741.09
2023-05-21T07:09:24.813Z,99736.72
2023-05-21T07:11:53.369Z,99735.88
2023-05-21T07:14:22.094Z,99741.34
2023-05-21T07:16:51.429Z,99739.44
2023-05-21T07:19:19.025Z,99741.34
2023-05-21T07:21:46.928Z,99737.53
2023-05-21T07:24:14.642Z,99743.56
2023-05-21T07:26:43.166Z,99733.50
2023-05-21T07:29:11.301Z,99740.63
2023-05-21T07:31:39.202Z,99731.59
2023-05-21T07:34:06.907Z,99737.06
2023-05-21T07:36:34.390Z,99738.72
2023-05-21T07:39:02.136Z,99732.44
2023-05-21T07:41:30.050Z,99725.94
2023-05-21T07:43:58.499Z,99730.31
2023-05-21T07:46:26.297Z,99731.12
2023-05-21T07:48:54.242Z,99727.34
2023-05-21T07:51:21.858Z,99724.41
2023-05-21T07:53:49.549Z,99727.94
2023-05-21T07:56:17.485Z,99722.25
2023-05-21T07:58:45.900Z,99722.25
2023-05-21T08:01:14.368Z,99719.28
2023-05-21T08:03:42.383Z,99707.31
2023-05-21T08:06:10.031Z,99712.53
2023-05-21T08:08:37.528Z,99725.09
2023-05-21T08:11:05.359Z,99725.72
2023-05-21T08:13:34.404Z,99728.44
2023-05-21T08:16:03.283Z,99721.91
2023-05-21T08:18:31.285Z,99731.16
2023-05-21T08:20:58.820Z,99726.28
2023-05-21T08:23:27.292Z,99720.25
2023-05-21T08:25:55.078Z,99721.09
2023-05-21T08:28:23.366Z,99724.63
2023-05-21T08:30:52.035Z,99719.19
2023-05-21T08:33:21.434Z,99720.00
2023-05-21T08:35:49.188Z,99731.75
2023-05-21T08:38:17.720Z,99730.66
2023-05-21T08:40:46.220Z,99731.75
2023-05-21T08:43:16.441Z,99725.22
2023-05-21T08:45:51.586Z,99723.31
2023-05-21T08:48:19.378Z,99720.38
2023-05-21T08:50:47.265Z,99724.16
2023-05-21T08:53:27.111Z,99719.28
2023-05-21T08:55:57.418Z,99725.00
2023-05-21T08:58:25.716Z,99722.84
2023-05-21T09:00:54.657Z,99728.56
2023-05-21T09:03:23.150Z,99722.03
2023-05-21T09:05:51.836Z,99719.28
2023-05-21T09:08:27.388Z,99719.06
2023-05-21T09:10:55.601Z,99728.06
2023-05-21T09:13:23.535Z,99720.72
2023-05-21T09:15:51.714Z,99719.06
2023-05-21T09:18:19.675Z,99720.97
2023-05-21T09:20:47.662Z,99717.16
2023-05-21T09:23:17.466Z,99714.22
2023-05-21T09:25:46.639Z,99715.50
2023-05-21T09:28:15.488Z,99710.66
2023-05-21T09:30:46.556Z,99713.59
2023-05-21T09:33:29.368Z,99719.66
2023-05-21T09:35:56.918Z,99720.25
2023-05-21T09:38:26.974Z,99723.22
2023-05-21T09:40:57.526Z,99715.88
2023-05-21T09:43:26.940Z,99718.59
2023-05-21T09:45:56.096Z,99727.59
2023-05-21T09:48:37.878Z,99717.50
2023-05-21T09:51:14.404Z,99724.16
2023-05-21T09:54:01.133Z,99715.16
2023-05-21T09:56:32.169Z,99716.22
2023-05-21T09:59:01.469Z,99709.09
2023-05-21T10:01:29.357Z,99704.47
2023-05-21T10:03:58.090Z,99714.31
2023-05-21T10:06:29.946Z,99704.47
2023-05-21T10:08:59.478Z,99705.06
2023-05-21T10:11:27.814Z,99710.28
2023-05-21T10:14:04.846Z,99703.78
2023-05-21T10:16:33.865Z,99708.97
2023-05-21T10:19:01.442Z,99705.66
2023-05-21T10:21:29.029Z,99707.31
2023-05-21T10:23:57.140Z,99694.50
2023-05-21T10:26:24.908Z,99696.16
2023-05-21T10:28:52.421Z,99696.16
2023-05-21T10:31:20.247Z,99686.06
2023-05-21T10:33:47.702Z,99696.75
2023-05-21T10:36:22.003Z,99694.88
2023-05-21T10:38:49.754Z,99692.38
2023-05-21T10:41:18.315Z,99685.81
2023-05-21T10:44:10.717Z,99691.91
2023-05-21T10:46:41.100Z,99691.28
2023-05-21T10:49:22.741Z,99686.91
2023-05-21T10:52:18.238Z,99683.34
2023-05-21T10:54:55.269Z,99682.28
2023-05-21T10:58:13.458Z,99681.44
2023-05-21T11:00:42.169Z,99683.09
2023-05-21T11:03:11.546Z,99687.41
2023-05-21T11:05:51.717Z,99681.94
2023-05-21T11:08:26.015Z,99672.91
2023-05-21T11:10:58.196Z,99667.44
2023-05-21T11:13:26.968Z,99670.16
2023-05-21T11:18:42.425Z,99671.25
2023-05-21T11:21:30.522Z,99677.78
2023-05-21T11:24:02.706Z,99679.22
2023-05-21T11:26:52.282Z,99674.22
2023-05-21T11:29:20.126Z,99668.75
2023-05-21T11:31:48.729Z,99673.97
2023-05-21T11:34:21.910Z,99670.66
2023-05-21T11:36:49.934Z,99664.38
2023-05-21T11:39:21.982Z,99665.22
2023-05-21T11:42:03.144Z,99667.94
2023-05-21T11:44:40.828Z,99667.94
2023-05-21T11:47:12.308Z,99672.56
2023-05-21T11:49:39.776Z,99669.22
2023-05-21T11:52:07.865Z,99660.81
2023-05-21T11:54:50.716Z,99661.88
2023-05-21T11:57:21.220Z,99661.66
2023-05-21T11:59:51.517Z,99658.31
2023-05-21T12:02:19.403Z,99661.03
2023-05-21T12:04:48.620Z,99661.28
2023-05-21T12:07:17.390Z,99649.66
2023-05-21T12:09:51.089Z,99647.41
2023-05-21T12:12:21.480Z,99642.19
2023-05-21T12:14:55.194Z,99641.94
2023-05-21T12:17:23.668Z,99641.34
2023-05-21T12:19:52.905Z,99641.72
2023-05-21T12:22:20.521Z,99638.41
2023-05-21T12:24:51.160Z,99639.81
2023-05-21T12:27:18.619Z,99640.66
2023-05-21T12:29:47.330Z,99633.28
2023-05-21T12:32:15.781Z,99632.47
2023-05-21T12:34:51.474Z,99633.03
2023-05-21T12:37:23.152Z,99631.16
2023-05-21T12:39:51.607Z,99627.37
2023-05-21T12:42:30.067Z,99628.41
2023-05-21T12:44:57.644Z,99629.03
2023-05-21T12:47:29.012Z,99625.47
2023-05-21T12:50:03.985Z,99623.31
2023-05-21T12:52:31.708Z,99629.59
2023-05-21T12:54:59.342Z,99618.94
2023-05-21T12:57:30.744Z,99607.78
2023-05-21T12:59:59.731Z,99614.56
2023-05-21T13:02:28.995Z,99607.78
2023-05-21T13:04:57.251Z,99606.94
2023-05-21T13:07:29.362Z,99603.13
2023-05-21T13:09:56.925Z,99600.41
2023-05-21T13:12:29.190Z,99600.41
2023-05-21T13:15:00.909Z,99602.09
2023-05-21T13:17:28.814Z,99598.50
2023-05-21T13:20:08.769Z,99588.44
2023-05-21T13:22:39.126Z,99592.56
2023-05-21T13:25:07.105Z,99597.22
2023-05-21T13:27:34.422Z,99595.75
2023-05-21T13:30:02.235Z,99592.31
2023-05-21T13:32:29.952Z,99593.66
2023-05-21T13:34:57.594Z,99585.47
2023-05-21T13:37:25.430Z,99578.94
2023-05-21T13:39:52.875Z,99582.50
2023-05-21T13:42:21.201Z,99569.91
2023-05-21T13:44:48.976Z,99577.03
2023-05-21T13:47:16.562Z,99570.75
2023-05-21T13:49:43.983Z,99568.84
2023-05-21T13:52:11.904Z,99566.13
2023-05-21T13:54:39.768Z,99567.78
2023-05-21T13:57:07.215Z,99572.41
2023-05-21T13:59:34.970Z,99564.22
2023-05-21T14:02:02.559Z,99568.59
2023-05-21T14:04:30.412Z,99566.72
2023-05-21T14:06:57.867Z,99571.09
2023-05-21T14:09:27.315Z,99560.19
2023-05-21T14:11:58.794Z,99559.34
2023-05-21T14:14:26.374Z,99550.91
2023-05-21T14:16:54.252Z,99557.47
2023-05-21T14:19:22.204Z,99556.63
2023-05-21T14:21:51.958Z,99556.38
2023-05-21T14:24:19.907Z,99560.19
2023-05-21T14:26:47.671Z,99556.12
2023-05-21T14:29:15.133Z,99556.38
2023-05-21T14:31:42.597Z,99550.91
2023-05-21T14:34:10.339Z,99554.47
2023-05-21T14:36:37.784Z,99552.56
2023-05-21T14:39:05.296Z,99541.66
2023-05-21T14:41:32.988Z,99550.66
2023-05-21T14:44:00.443Z,99544.72
2023-05-21T14:46:28.060Z,99545.56
2023-05-21T14:48:59.216Z,99546.38
2023-05-21T14:51:26.726Z,99545.56
2023-05-21T14:53:54.338Z,99543.09
2023-05-21T14:56:23.490Z,99542.00
2023-05-21T14:58:51.091Z,99543.91
2023-05-21T15:01:18.635Z,99542.00
2023-05-21T15:03:46.519Z,99540.94
2023-05-21T15:06:13.981Z,99540.09
2023-05-21T15:08:41.509Z,99534.38
2023-05-21T15:11:10.012Z,99539.03
2023-05-21T15:13:38.191Z,99530.84
2023-05-21T15:16:06.187Z,99533.56
2023-05-21T15:18:33.987Z,99518.00
2023-05-21T15:21:01.493Z,99519.69
2023-05-21T15:23:29.051Z,99518.88
2023-05-21T15:25:56.826Z,99523.72
2023-05-21T15:28:24.290Z,99525.38
2023-05-21T15:30:51.783Z,99524.34
2023-05-21T15:33:19.522Z,99525.97
2023-05-21T15:35:47.067Z,99522.44
2023-05-21T15:38:14.547Z,99529.78
2023-05-21T15:40:42.736Z,99522.44
2023-05-21T15:43:10.202Z,99520.53
2023-05-21T15:45:38.794Z,99524.66
2023-05-21T15:48:07.312Z,99521.69
2023-05-21T15:50:38.199Z,99528.81
2023-05-21T15:53:05.673Z,99527.16
2023-05-21T15:55:33.723Z,99527.97
2023-05-21T15:58:03.181Z,99521.69
2023-05-21T16:00:30.760Z,99527.72
2023-05-21T16:02:58.576Z,99525.81
2023-05-21T16:05:26.389Z,99531.28
2023-05-21T16:07:53.836Z,99528.56
2023-05-21T16:10:21.658Z,99531.06
2023-05-21T16:12:49.158Z,99529.97
2023-05-21T16:15:16.760Z,99535.81
2023-05-21T16:17:44.548Z,99533.09
2023-05-21T16:20:12.718Z,99536.66
2023-05-21T16:22:40.720Z,99530.34
2023-05-21T16:25:09.980Z,99532.59
2023-05-21T16:27:37.442Z,99541.84
2023-05-21T16:30:05.541Z,99538.66
2023-05-21T16:32:33.334Z,99541.38
2023-05-21T16:35:00.832Z,99542.19
2023-05-21T16:37:28.310Z,99542.78
2023-05-21T16:39:56.106Z,99545.50
2023-05-21T16:42:24.957Z,99543.84
2023-05-21T16:44:52.427Z,99545.50
2023-05-21T16:47:20.330Z,99547.16
2023-05-21T16:49:47.867Z,99549.31
2023-05-21T16:52:15.356Z,99555.03
2023-05-21T16:54:48.437Z,99542.19
2023-05-21T16:57:16.211Z,99558.31
2023-05-21T16:59:43.908Z,99556.16
2023-05-21T17:02:11.824Z,99555.34
2023-05-21T17:04:41.378Z,99557.25
2023-05-21T17:07:09.161Z,99561.63
2023-05-21T17:09:36.649Z,99559.97
2023-05-21T17:12:04.312Z,99561.06
2023-05-21T17:14:34.344Z,99563.53
2023-05-21T17:17:02.536Z,99560.81
2023-05-21T17:19:30.052Z,99564.97
2023-05-21T17:21:57.920Z,99555.94
2023-05-21T17:24:25.879Z,99563.53
2023-05-21T17:26:53.694Z,99564.97
2023-05-21T17:29:21.501Z,99560.56
2023-05-21T17:31:50.057Z,99571.00
2023-05-21T17:34:18.063Z,99560.06
2023-05-21T17:36:45.853Z,99560.66
2023-05-21T17:39:13.402Z,99560.66
2023-05-21T17:41:40.912Z,99563.41
2023-05-21T17:44:08.620Z,99561.16
2023-05-21T17:46:36.090Z,99561.75
2023-05-21T17:49:03.755Z,99560.91
2023-05-21T17:51:31.635Z,99557.34
2023-05-21T17:53:59.461Z,99559.25
2023-05-21T17:56:27.000Z,99561.50
2023-05-21T17:58:55.231Z,99563.62
2023-05-21T18:01:22.849Z,99553.31
2023-05-21T18:03:50.690Z,99558.78
2023-05-21T18:06:18.279Z,99556.03
2023-05-21T18:08:45.750Z,99562.31
2023-05-21T18:11:13.509Z,99558.50
2023-05-21T18:13:41.044Z,99556.88
2023-05-21T18:16:08.537Z,99555.56
2023-05-21T18:18:36.310Z,99553.06
2023-05-21T18:21:03.909Z,99559.34
2023-05-21T18:23:31.467Z,99554.47
2023-05-21T18:25:59.191Z,99551.97
2023-05-21T18:28:29.310Z,99559.69
2023-05-21T18:31:00.841Z,99557.78
2023-05-21T18:33:28.534Z,99559.69
2023-05-21T18:35:56.201Z,99567.31
2023-05-21T18:38:23.675Z,99564.56
2023-05-21T18:40:51.461Z,99572.50
2023-05-21T18:43:18.937Z,99575.25
2023-05-21T18:45:46.673Z,99576.06
2023-05-21T18:48:14.605Z,99569.78
2023-05-21T18:50:44.725Z,99572.50
2023-05-21T18:53:11.989Z,99572.25
2023-05-21T18:55:39.779Z,99571.06
2023-05-21T18:58:07.419Z,99574.78
2023-05-21T19:00:35.265Z,99584.25
2023-05-21T19:03:03.528Z,99586.16
2023-05-21T19:05:31.831Z,99582.63
2023-05-21T19:07:59.664Z,99587.00
2023-05-21T19:10:27.449Z,99584.25
2023-05-21T19:12:55.007Z,99590.56
2023-05-21T19:15:22.466Z,99589.47
2023-05-21T19:17:50.352Z,99594.94
2023-05-21T19:20:24.709Z,99591.16
2023-05-21T19:22:53.711Z,99599.09
2023-05-21T19:25:21.346Z,99598.25
2023-05-21T19:27:48.984Z,99603.97
2023-05-21T19:30:16.915Z,99597.66
2023-05-21T19:32:46.156Z,99605.84
2023-05-21T19:35:13.733Z,99604.81
2023-05-21T19:37:41.540Z,99607.53
2023-05-21T19:40:09.562Z,99611.31
2023-05-21T19:42:37.549Z,99607.53
2023-05-21T19:45:09.447Z,99613.81
2023-05-21T19:47:37.139Z,99613.00
2023-05-21T19:50:05.349Z,99610.84
2023-05-21T19:52:32.888Z,99608.94
2023-05-21T19:55:04.806Z,99608.12
2023-05-21T19:57:33.794Z,99610.84
2023-05-21T20:00:01.356Z,99608.12
2023-05-21T20:02:40.986Z,99610.03
2023-05-21T20:05:09.399Z,99604.56
2023-05-21T20:07:37.085Z,99603.72
2023-05-21T20:10:04.952Z,99610.03
2023-05-21T20:12:32.644Z,99611.91
2023-05-21T20:15:00.908Z,99617.38
2023-05-21T20:17:33.935Z,99607.53
2023-05-21T20:20:03.663Z,99613.00
2023-05-21T20:22:31.904Z,99614.06
2023-05-21T20:25:01.448Z,99608.59
2023-05-21T20:27:29.328Z,99608.84
2023-05-21T20:29:56.797Z,99606.94
2023-05-21T20:32:24.261Z,99615.38
2023-05-21T20:35:02.807Z,99617.28
2023-05-21T20:37:32.820Z,99614.56
2023-05-21T20:40:00.677Z,99611.81
2023-05-21T20:42:34.164Z,99606.38
2023-05-21T20:45:03.056Z,99605.75
2023-05-21T20:47:31.097Z,99602.22
2023-05-21T20:50:02.911Z,99607.66
2023-05-21T20:52:30.793Z,99612.56
2023-05-21T20:54:59.745Z,99608.75
2023-05-21T20:57:27.412Z,99607.31
2023-05-21T20:59:55.085Z,99602.47
2023-05-21T21:02:23.013Z,99601.03
2023-05-21T21:04:50.674Z,99602.72
2023-05-21T21:07:18.767Z,99596.41
2023-05-21T21:09:46.962Z,99599.13
2023-05-21T21:12:25.117Z,99599.38
2023-05-21T21:14:54.274Z,99593.09
2023-05-21T21:17:21.908Z,99590.34
2023-05-21T21:19:49.446Z,99593.34
2023-05-21T21:22:18.348Z,99593.34
2023-05-21T21:24:46.016Z,99593.00
2023-05-21T21:27:13.559Z,99597.37
2023-05-21T21:29:41.327Z,99597.63
2023-05-21T21:32:08.788Z,99596.81
2023-05-21T21:34:36.307Z,99593.25
2023-05-21T21:37:04.406Z,99592.41
2023-05-21T21:39:31.826Z,99604.37
2023-05-21T21:41:59.349Z,99604.37
2023-05-21T21:44:27.102Z,99600.84
2023-05-21T21:46:54.589Z,99597.28
2023-05-21T21:49:22.002Z,99594.81
2023-05-21T21:51:51.274Z,99592.28
2023-05-21T21:54:18.750Z,99601.34
2023-05-21T21:56:46.396Z,99602.16
2023-05-21T21:59:14.235Z,99600.47
2023-05-21T22:01:42.716Z,99603.44
2023-05-21T22:04:11.333Z,99601.56
2023-05-21T22:06:39.157Z,99609.97
2023-05-21T22:09:07.565Z,99617.34
2023-05-21T22:11:35.447Z,99620.06
2023-05-21T22:14:04.376Z,99624.69
2023-05-21T22:16:33.419Z,99624.69
2023-05-21T22:19:01.459Z,99623.88
2023-05-21T22:21:29.457Z,99607.50
2023-05-21T22:23:57.040Z,99623.00
2023-05-21T22:26:24.771Z,99613.19
2023-05-21T22:28:52.674Z,99622.19
2023-05-21T22:31:20.195Z,99629.56
2023-05-21T22:33:47.987Z,99624.34
2023-05-21T22:36:15.419Z,99623.25
2023-05-21T22:38:43.828Z,99616.97
2023-05-21T22:41:11.567Z,99624.34
2023-05-21T22:43:39.004Z,99628.16
2023-05-21T22:46:06.506Z,99623.75
2023-05-21T22:48:37.252Z,99619.97
2023-05-21T22:51:05.526Z,99616.62
2023-05-21T22:53:33.442Z,99624.81
2023-05-21T22:56:01.257Z,99617.44
2023-05-21T22:58:28.732Z,99624.81
2023-05-21T23:00:56.175Z,99628.88
2023-05-21T23:03:23.919Z,99627.78
2023-05-21T23:05:51.432Z,99623.41
2023-05-21T23:08:19.016Z,99614.41
2023-05-21T23:10:46.773Z,99622.34
2023-05-21T23:13:14.211Z,99614.16
2023-05-21T23:15:43.842Z,99607.03
2023-05-21T23:18:12.536Z,99610.81
2023-05-21T23:20:41.057Z,99603.47
2023-05-21T23:23:09.842Z,99599.91
2023-05-21T23:25:37.594Z,99613.31
2023-05-21T23:28:05.153Z,99611.66
2023-05-21T23:30:32.622Z,99620.69
2023-05-21T23:33:00.583Z,99608.94
2023-05-21T23:35:28.151Z,99610.00
2023-05-21T23:37:55.906Z,99600.97
2023-05-21T23:40:23.699Z,99614.63
2023-05-21T23:42:51.162Z,99616.53
2023-05-21T23:45:18.603Z,99611.06
2023-05-21T23:47:46.627Z,99610.00
2023-05-21T23:50:14.154Z,99608.34
2023-05-21T23:52:41.658Z,99607.25
2023-05-21T23:55:11.581Z,99605.84
2023-05-21T23:57:39.043Z,99610.25
